Time;durP1;ratioP1;P1;durP2;ratioP2;P2;SDS_P1;SDS_P2;PMS_P1;PMS_P2;Temp;Humidity;BMP_temperature;BMP_pressure;BME280_temperature;BME280_humidity;BME280_pressure;Samples;Min_cycle;Max_cycle;Signal;HPM_P1;HPM_P2
2023/07/13 00:02:18;;;;;;;4.75;2.50;;;;;;;18.45;100.00;100392.09;7566482;23;20028;-95
2023/07/13 00:05:22;;;;;;;4.03;2.50;;;;;;;18.45;100.00;100387.66;7615221;23;20021;-95
2023/07/13 00:08:24;;;;;;;3.97;2.20;;;;;;;18.37;100.00;100392.19;7591696;23;20076;-95
2023/07/13 00:11:26;;;;;;;2.83;2.10;;;;;;;18.30;100.00;100400.72;7591304;23;20025;-96
2023/07/13 00:14:30;;;;;;;3.45;2.10;;;;;;;18.24;100.00;100405.88;7591452;23;20032;-95
2023/07/13 00:17:32;;;;;;;3.47;2.05;;;;;;;18.22;100.00;100408.66;7591184;23;20022;-95
2023/07/13 00:20:35;;;;;;;3.13;2.15;;;;;;;18.23;100.00;100402.41;7592682;23;20022;-96
2023/07/13 00:23:41;;;;;;;2.97;2.10;;;;;;;18.25;100.00;100410.91;7591841;23;20044;-95
2023/07/13 00:26:45;;;;;;;4.00;2.25;;;;;;;18.27;100.00;100416.00;7591997;23;20764;-94
2023/07/13 00:29:48;;;;;;;3.05;2.25;;;;;;;18.31;100.00;100417.28;7565848;23;20528;-95
2023/07/13 00:32:50;;;;;;;4.90;2.22;;;;;;;18.35;100.00;100415.13;7592239;23;20495;-96
2023/07/13 00:36:06;;;;;;;3.22;2.08;;;;;;;18.29;100.00;100406.16;7565571;23;20029;-96
2023/07/13 00:39:09;;;;;;;2.30;2.10;;;;;;;18.30;100.00;100403.34;7591821;23;20021;-96
2023/07/13 00:42:13;;;;;;;2.90;2.33;;;;;;;18.28;100.00;100407.13;7592153;23;20018;-95
2023/07/13 00:45:21;;;;;;;3.22;2.17;;;;;;;18.28;100.00;100410.59;7591757;23;20018;-95
2023/07/13 00:48:33;;;;;;;2.47;2.05;;;;;;;18.24;100.00;100408.47;7565163;23;20030;-95
2023/07/13 00:51:45;;;;;;;7.32;2.40;;;;;;;18.18;100.00;100407.34;7591754;23;20022;-95
2023/07/13 00:54:48;;;;;;;;;;;;;;;18.25;100.00;100410.91;7566855;23;20417;-95
2023/07/13 00:57:50;;;;;;;3.40;2.35;;;;;;;18.10;100.00;100403.97;7611902;23;19967;-95
2023/07/13 01:00:53;;;;;;;5.10;2.80;;;;;;;18.05;100.00;100404.50;7628288;23;20022;-95
2023/07/13 01:03:56;;;;;;;5.57;2.35;;;;;;;17.92;100.00;100404.25;7651250;23;20087;-95
2023/07/13 01:07:00;;;;;;;2.95;2.13;;;;;;;17.77;100.00;100397.09;7602266;23;20057;-95
2023/07/13 01:10:04;;;;;;;2.90;2.20;;;;;;;17.62;100.00;100396.19;7627113;23;20108;-94
2023/07/13 01:13:08;;;;;;;5.20;2.45;;;;;;;17.52;100.00;100387.72;7627636;23;20047;-95
2023/07/13 01:16:42;;;;;;;2.63;2.10;;;;;;;17.40;100.00;100390.69;7649408;23;20049;-95
2023/07/13 01:19:45;;;;;;;5.65;2.70;;;;;;;17.31;100.00;100398.75;7585504;23;20338;-94
2023/07/13 01:22:48;;;;;;;2.95;2.42;;;;;;;17.23;100.00;100410.84;7611053;23;20097;-95
2023/07/13 01:25:50;;;;;;;3.78;2.08;;;;;;;17.13;100.00;100405.00;7586724;23;20025;-95
2023/07/13 01:28:53;;;;;;;3.65;2.83;;;;;;;17.03;100.00;100401.75;7584807;23;20544;-94
2023/07/13 01:31:55;;;;;;;3.28;2.50;;;;;;;16.95;100.00;100404.38;7611402;23;20357;-93
2023/07/13 01:34:59;;;;;;;2.42;2.25;;;;;;;16.93;100.00;100401.13;7562914;23;20098;-94
2023/07/13 01:38:02;;;;;;;3.88;2.30;;;;;;;16.86;100.00;100400.94;7561576;23;20026;-94
2023/07/13 01:41:04;;;;;;;2.58;2.38;;;;;;;16.83;100.00;100405.72;7562371;23;20070;-95
2023/07/13 01:44:06;;;;;;;3.10;2.55;;;;;;;16.78;100.00;100406.19;7587171;23;20512;-95
2023/07/13 01:47:11;;;;;;;2.28;2.05;;;;;;;16.73;100.00;100411.06;7538675;23;20209;-95
2023/07/13 01:50:14;;;;;;;4.45;2.55;;;;;;;16.66;100.00;100403.06;7586496;23;20022;-94
2023/07/13 01:53:16;;;;;;;4.32;2.15;;;;;;;16.62;100.00;100406.16;7586754;23;20021;-94
2023/07/13 01:56:18;;;;;;;3.72;2.40;;;;;;;16.54;100.00;100415.63;7636575;23;20032;-94
2023/07/13 01:59:21;;;;;;;3.38;2.35;;;;;;;16.50;100.00;100426.59;7625862;23;20056;-94
2023/07/13 02:02:23;;;;;;;3.70;2.40;;;;;;;16.48;100.00;100423.31;7626051;23;20175;-94
2023/07/13 02:05:25;;;;;;;6.28;2.47;;;;;;;16.45;100.00;100421.03;7577831;23;20112;-94
2023/07/13 02:08:27;;;;;;;4.40;2.35;;;;;;;16.37;100.00;100429.66;7624681;23;20045;-94
2023/07/13 02:11:32;;;;;;;4.20;2.38;;;;;;;16.30;100.00;100420.84;7627681;23;20112;-94
2023/07/13 02:14:35;;;;;;;5.70;2.20;;;;;;;16.23;100.00;100425.09;7601019;23;20164;-94
2023/07/13 02:17:40;;;;;;;4.15;2.33;;;;;;;16.23;100.00;100432.91;7624305;23;20037;-94
2023/07/13 02:20:43;;;;;;;5.50;2.60;;;;;;;16.20;100.00;100433.22;7625893;23;20025;-94
2023/07/13 02:23:49;;;;;;;3.60;2.60;;;;;;;16.21;100.00;100432.25;7627828;23;20025;-94
2023/07/13 02:26:51;;;;;;;3.85;2.28;;;;;;;16.27;100.00;100426.38;7627633;23;20047;-94
2023/07/13 02:29:54;;;;;;;3.72;2.10;;;;;;;16.40;100.00;100429.34;7602093;23;20053;-94
2023/07/13 02:32:57;;;;;;;2.92;1.95;;;;;;;16.33;100.00;100428.38;7625464;23;20022;-95
2023/07/13 02:35:59;;;;;;;3.20;2.00;;;;;;;16.29;100.00;100435.69;7627774;23;20547;-95
2023/07/13 02:39:03;;;;;;;3.22;2.00;;;;;;;16.35;100.00;100434.25;7625713;23;20558;-94
2023/07/13 02:42:06;;;;;;;4.38;2.40;;;;;;;16.28;100.00;100436.69;7601538;23;20017;-94
2023/07/13 02:45:09;;;;;;;3.08;2.30;;;;;;;16.18;100.00;100435.19;7650577;23;20021;-94
2023/07/13 02:48:13;;;;;;;3.83;2.00;;;;;;;16.14;100.00;100434.69;7600865;23;20026;-94
2023/07/13 02:51:16;;;;;;;6.05;2.92;;;;;;;15.98;100.00;100424.22;7628025;23;20060;-94
2023/07/13 02:54:18;;;;;;;5.78;2.47;;;;;;;16.26;100.00;100425.56;7628336;23;20024;-94
2023/07/13 02:57:20;;;;;;;4.00;2.20;;;;;;;16.36;100.00;100431.47;7651092;23;20026;-93
2023/07/13 03:00:23;;;;;;;5.18;2.47;;;;;;;16.15;100.00;100431.09;7626835;23;20021;-94
2023/07/13 03:03:26;;;;;;;2.53;1.98;;;;;;;16.32;100.00;100424.09;7627152;23;20573;-93
2023/07/13 03:06:31;;;;;;;4.90;2.50;;;;;;;16.33;100.00;100434.41;7600864;23;20044;-94
2023/07/13 03:09:34;;;;;;;5.13;2.40;;;;;;;16.35;100.00;100427.22;7650029;23;20022;-94
2023/07/13 03:12:39;;;;;;;4.15;2.20;;;;;;;16.40;100.00;100431.13;7624773;23;20022;-94
2023/07/13 03:15:48;;;;;;;3.55;2.58;;;;;;;16.48;100.00;100436.38;7650836;23;20032;-93
2023/07/13 03:18:50;;;;;;;5.68;2.42;;;;;;;16.45;100.00;100434.91;7600697;23;20032;-94
2023/07/13 03:21:53;;;;;;;4.57;2.60;;;;;;;16.40;100.00;100436.34;7626219;23;20795;-94
2023/07/13 03:24:56;;;;;;;4.30;2.63;;;;;;;16.36;100.00;100435.88;7601152;23;20086;-96
2023/07/13 03:27:59;;;;;;;3.95;2.35;;;;;;;16.32;100.00;100431.94;7576774;23;20125;-94
2023/07/13 03:31:04;;;;;;;5.80;2.53;;;;;;;16.28;100.00;100425.41;7649782;23;20029;-94
2023/07/13 03:34:07;;;;;;;5.45;2.42;;;;;;;16.32;100.00;100432.78;7650710;23;20469;-95
2023/07/13 03:37:11;;;;;;;7.20;2.60;;;;;;;16.42;100.00;100427.41;7650107;23;20029;-94
2023/07/13 03:40:13;;;;;;;4.32;2.35;;;;;;;16.55;100.00;100425.13;7624587;23;20025;-95
2023/07/13 03:43:20;;;;;;;7.35;3.00;;;;;;;16.77;100.00;100426.25;7601878;23;20661;-95
2023/07/13 03:46:23;;;;;;;4.18;2.53;;;;;;;16.96;100.00;100426.94;7600653;23;20029;-95
2023/07/13 03:49:25;;;;;;;4.22;2.58;;;;;;;17.10;100.00;100428.06;7626717;23;20028;-95
2023/07/13 03:52:28;;;;;;;5.47;2.55;;;;;;;17.21;100.00;100432.94;7599639;23;20080;-95
2023/07/13 03:55:30;;;;;;;2.47;2.10;;;;;;;17.26;100.00;100432.44;7626447;23;20348;-95
2023/07/13 03:58:40;;;;;;;5.78;2.03;;;;;;;17.34;100.00;100438.47;7626718;23;20021;-95
2023/07/13 04:01:48;;;;;;;4.75;2.00;;;;;;;17.42;100.00;100441.06;7601508;23;20021;-95
2023/07/13 04:04:52;;;;;;;4.88;2.20;;;;;;;17.50;100.00;100432.38;7652625;23;20554;-96
2023/07/13 04:07:58;;;;;;;5.50;2.10;;;;;;;17.52;100.00;100440.06;7651866;23;20022;-95
2023/07/13 04:11:03;;;;;;;7.90;2.30;;;;;;;17.46;100.00;100440.72;7652630;23;20085;-95
2023/07/13 04:14:06;;;;;;;5.72;1.88;;;;;;;17.62;100.00;100456.38;7629115;23;20020;-96
2023/07/13 04:17:08;;;;;;;4.45;1.98;;;;;;;17.36;100.00;100446.16;7602399;23;20491;-96
2023/07/13 04:20:11;;;;;;;3.25;1.73;;;;;;;17.55;100.00;100460.66;7626779;23;20032;-95
2023/07/13 04:23:14;;;;;;;2.72;1.80;;;;;;;17.39;100.00;100464.13;7628301;23;20336;-95
2023/07/13 04:26:16;;;;;;;4.03;1.83;;;;;;;17.42;100.00;100464.63;7629193;23;20474;-95
2023/07/13 04:29:18;;;;;;;4.03;1.80;;;;;;;17.42;100.00;100462.00;7602534;23;20022;-95
2023/07/13 04:32:20;;;;;;;4.22;1.90;;;;;;;17.15;100.00;100465.81;7602393;23;20140;-95
2023/07/13 04:35:23;;;;;;;4.20;1.92;;;;;;;17.10;100.00;100465.50;7652159;23;20025;-96
2023/07/13 04:38:28;;;;;;;5.30;1.92;;;;;;;17.13;100.00;100454.69;7628560;23;20026;-96
2023/07/13 04:41:30;;;;;;;4.93;2.03;;;;;;;17.11;100.00;100463.69;7629133;23;20144;-96
2023/07/13 04:44:32;;;;;;;3.85;2.13;;;;;;;17.12;100.00;100467.97;7651726;23;20022;-95
2023/07/13 04:47:35;;;;;;;3.45;1.58;;;;;;;16.94;100.00;100468.09;7629867;23;20041;-96
2023/07/13 04:50:38;;;;;;;5.57;1.77;;;;;;;17.16;100.00;100462.19;7629526;23;20092;-95
2023/07/13 04:53:44;;;;;;;5.03;2.20;;;;;;;17.19;100.00;100466.28;7629478;23;20025;-96
2023/07/13 04:56:46;;;;;;;4.25;2.10;;;;;;;17.29;100.00;100466.09;7652170;23;20026;-96
2023/07/13 04:59:50;;;;;;;6.85;1.77;;;;;;;17.33;100.00;100472.66;7628433;23;20021;-94
2023/07/13 05:02:57;;;;;;;3.72;1.80;;;;;;;17.51;100.00;100469.81;7627646;23;20025;-96
2023/07/13 05:06:06;;;;;;;4.80;2.03;;;;;;;17.24;100.00;100479.69;7629521;23;20024;-94
2023/07/13 05:09:08;;;;;;;5.93;2.00;;;;;;;17.28;100.00;100472.34;7626941;23;20032;-96
2023/07/13 05:12:11;;;;;;;6.13;1.90;;;;;;;17.39;100.00;100475.44;7629202;23;20312;-96
2023/07/13 05:15:13;;;;;;;5.38;2.22;;;;;;;17.49;100.00;100483.09;7629405;23;20025;-94
2023/07/13 05:18:15;;;;;;;7.65;2.47;;;;;;;17.49;100.00;100480.47;7628916;23;20058;-96
2023/07/13 05:21:19;;;;;;;4.85;2.03;;;;;;;17.56;100.00;100478.00;7603806;23;20025;-96
2023/07/13 05:24:22;;;;;;;8.90;2.25;;;;;;;17.50;100.00;100484.72;7651983;23;20032;-96
2023/07/13 05:27:27;;;;;;;3.83;1.80;;;;;;;17.46;100.00;100479.97;7605144;23;20802;-95
2023/07/13 05:30:31;;;;;;;4.80;2.03;;;;;;;17.51;100.00;100488.16;7629937;23;20017;-96
2023/07/13 05:33:37;;;;;;;7.35;2.20;;;;;;;17.55;100.00;100489.47;7604686;23;20432;-96
2023/07/13 05:36:41;;;;;;;8.63;2.53;;;;;;;17.50;100.00;100495.19;7628537;23;20025;-96
2023/07/13 05:39:43;;;;;;;5.00;2.17;;;;;;;17.54;100.00;100491.25;7652279;23;20487;-96
2023/07/13 05:42:45;;;;;;;5.90;2.53;;;;;;;17.59;100.00;100501.22;7626746;23;20115;-96
2023/07/13 05:45:49;;;;;;;4.68;2.10;;;;;;;17.65;100.00;100497.94;7628181;23;20017;-94
2023/07/13 05:48:51;;;;;;;4.22;1.98;;;;;;;17.67;100.00;100495.16;7630925;23;20048;-96
2023/07/13 05:51:57;;;;;;;7.03;1.92;;;;;;;17.68;100.00;100497.59;7602015;23;20080;-95
2023/07/13 05:55:00;;;;;;;4.15;1.80;;;;;;;17.81;100.00;100518.03;7653617;23;20100;-95
2023/07/13 05:58:03;;;;;;;8.00;2.10;;;;;;;17.93;100.00;100510.63;7605213;23;20510;-96
2023/07/13 06:01:13;;;;;;;7.75;2.33;;;;;;;17.90;100.00;100506.56;7627745;23;20536;-95
2023/07/13 06:04:16;;;;;;;4.82;2.50;;;;;;;17.91;100.00;100510.78;7630429;23;20026;-96
2023/07/13 06:07:21;;;;;;;5.15;2.17;;;;;;;18.16;100.00;100506.28;7605763;23;20025;-96
2023/07/13 06:10:26;;;;;;;3.58;2.08;;;;;;;18.35;100.00;100510.28;7634980;23;20446;-96
2023/07/13 06:13:28;;;;;;;8.55;2.53;;;;;;;18.47;100.00;100522.00;7605908;23;20025;-95
2023/07/13 06:16:31;;;;;;;5.35;2.30;;;;;;;18.48;100.00;100513.16;7651096;23;20025;-95
2023/07/13 06:19:35;;;;;;;5.93;2.30;;;;;;;18.67;100.00;100526.81;7630860;23;20424;-96
2023/07/13 06:22:37;;;;;;;5.35;2.63;;;;;;;18.99;100.00;100523.16;7606682;23;20352;-96
2023/07/13 06:25:43;;;;;;;5.32;2.20;;;;;;;19.21;100.00;100521.50;7606218;23;20024;-96
2023/07/13 06:28:49;;;;;;;6.07;2.30;;;;;;;19.23;100.00;100532.63;7602480;23;20024;-94
2023/07/13 06:31:52;;;;;;;7.57;2.45;;;;;;;19.21;100.00;100533.81;7655162;23;20047;-95
2023/07/13 06:34:57;;;;;;;5.75;2.22;;;;;;;19.09;100.00;100534.22;7612073;23;20443;-95
2023/07/13 06:38:44;;;;;;;6.07;2.33;;;;;;;18.86;100.00;100539.50;7653569;23;20009;-96
2023/07/13 06:42:03;;;;;;;6.15;2.28;;;;;;;18.60;100.00;100545.03;7669700;23;20447;-96
2023/07/13 06:45:11;;;;;;;5.88;2.33;;;;;;;18.56;100.00;100549.00;7628655;23;20044;-96
2023/07/13 06:48:18;;;;;;;5.60;2.00;;;;;;;18.62;100.00;100545.66;7672289;23;20021;-96
2023/07/13 06:51:35;;;;;;;5.63;2.20;;;;;;;18.80;100.00;100544.59;7661392;23;20025;-96
2023/07/13 06:54:37;;;;;;;5.95;2.35;;;;;;;18.81;100.00;100547.06;7640812;23;20049;-96
2023/07/13 06:57:44;;;;;;;6.35;2.20;;;;;;;18.81;100.00;100548.88;7657790;23;20045;-96
2023/07/13 07:01:31;;;;;;;5.47;1.95;;;;;;;18.73;100.00;100547.06;7607900;23;20028;-96
2023/07/13 07:04:33;;;;;;;6.32;1.90;;;;;;;18.82;100.00;100553.13;7618957;23;20029;-96
2023/07/13 07:07:39;;;;;;;6.97;2.08;;;;;;;18.93;100.00;100550.06;7667015;23;20587;-96
2023/07/13 07:10:42;;;;;;;5.82;1.52;;;;;;;18.91;100.00;100557.31;7646116;23;20033;-96
2023/07/13 07:13:45;;;;;;;5.75;1.60;;;;;;;18.87;100.00;100548.16;7667610;23;20352;-96
2023/07/13 07:16:58;;;;;;;3.53;1.80;;;;;;;18.79;100.00;100551.66;7668749;23;20085;-96
2023/07/13 07:20:04;;;;;;;4.90;1.88;;;;;;;18.76;100.00;100551.19;7669722;23;20017;-96
2023/07/13 07:23:10;;;;;;;4.00;1.55;;;;;;;18.89;100.00;100548.81;7668833;23;20029;-96
2023/07/13 07:26:30;;;;;;;3.75;1.83;;;;;;;19.04;100.00;100549.69;7623162;23;20022;-96
2023/07/13 07:29:45;;;;;;;3.42;1.40;;;;;;;19.04;100.00;100544.44;7615053;23;20021;-96
2023/07/13 07:33:10;;;;;;;5.25;1.70;;;;;;;19.08;100.00;100548.34;7611260;23;20018;-96
2023/07/13 07:36:14;;;;;;;3.72;1.85;;;;;;;19.17;100.00;100546.47;7625695;23;20077;-96
2023/07/13 07:39:25;;;;;;;4.70;1.52;;;;;;;19.27;100.00;100541.78;7657180;23;20025;-96
2023/07/13 07:42:35;;;;;;;4.05;1.85;;;;;;;19.33;100.00;100545.50;7614273;23;20022;-96
2023/07/13 07:45:46;;;;;;;2.63;1.88;;;;;;;19.33;100.00;100548.94;7612772;23;20024;-96
2023/07/13 07:48:52;;;;;;;8.57;1.85;;;;;;;19.31;100.00;100547.50;7633308;23;20029;-96
2023/07/13 07:52:00;;;;;;;6.68;1.63;;;;;;;19.25;100.00;100548.19;7636573;23;20092;-96
2023/07/13 07:55:04;;;;;;;6.18;1.77;;;;;;;19.39;100.00;100557.09;7678269;23;20026;-96
2023/07/13 07:58:43;;;;;;;2.03;1.50;;;;;;;19.61;100.00;100556.22;7634975;23;20022;-96
2023/07/13 08:01:54;;;;;;;4.97;1.52;;;;;;;19.83;100.00;100546.69;7648019;23;20073;-96
2023/07/13 08:05:04;;;;;;;3.70;1.52;;;;;;;19.91;100.00;100557.09;7601589;23;20025;-96
2023/07/13 08:08:10;;;;;;;3.65;1.75;;;;;;;19.81;100.00;100555.75;7596181;23;20025;-95
2023/07/13 08:11:12;;;;;;;5.65;1.83;;;;;;;19.72;100.00;100560.25;7601152;23;20326;-96
2023/07/13 08:14:17;;;;;;;4.20;1.92;;;;;;;19.87;100.00;100555.00;7602388;23;20666;-96
2023/07/13 08:17:21;;;;;;;6.47;1.88;;;;;;;20.23;100.00;100574.28;7583328;23;20026;-96
2023/07/13 08:20:23;;;;;;;5.55;1.95;;;;;;;20.43;100.00;100558.75;7603997;23;20127;-96
2023/07/13 08:23:32;;;;;;;2.72;1.52;;;;;;;20.50;100.00;100558.84;7609248;23;20330;-96
2023/07/13 08:26:39;;;;;;;2.97;2.10;;;;;;;20.57;100.00;100559.75;7669993;22;20024;-95
2023/07/13 08:29:42;;;;;;;4.75;1.90;;;;;;;20.64;100.00;100560.66;7745279;23;20228;-95
2023/07/13 08:32:44;;;;;;;3.47;1.95;;;;;;;20.60;100.00;100580.41;7742129;23;20027;-91
2023/07/13 08:35:47;;;;;;;5.82;2.00;;;;;;;20.67;100.00;100566.50;7743417;23;20016;-93
2023/07/13 08:38:50;;;;;;;7.30;2.10;;;;;;;20.85;100.00;100559.84;7745305;23;20016;-96
2023/07/13 08:42:01;;;;;;;4.35;1.55;;;;;;;21.19;100.00;100563.59;7747869;23;20497;-95
2023/07/13 08:45:24;;;;;;;6.45;2.05;;;;;;;21.42;100.00;100559.94;7749623;22;20016;-96
2023/07/13 08:48:35;;;;;;;10.93;2.40;;;;;;;21.38;100.00;100574.47;7750124;23;20423;-93
2023/07/13 08:51:44;;;;;;;5.75;1.88;;;;;;;21.19;100.00;100582.00;7770033;22;20027;-94
2023/07/13 08:54:51;;;;;;;4.00;1.83;;;;;;;21.18;100.00;100569.03;7750079;23;20018;-95
2023/07/13 08:58:01;;;;;;;6.55;2.00;;;;;;;21.28;100.00;100574.78;7744160;23;20020;-94
2023/07/13 09:01:10;;;;;;;7.10;2.05;;;;;;;21.49;100.00;100551.09;7754245;23;20031;-96
2023/07/13 09:04:22;;;;;;;9.25;2.20;;;;;;;21.43;100.00;100574.72;7754389;23;20395;-95
2023/07/13 09:07:48;;;;;;;8.82;2.25;;;;;;;21.41;100.00;100568.84;7743300;23;20020;-93
2023/07/13 09:11:31;;;;;;;6.22;2.10;;;;;;;21.57;100.00;100581.72;7749206;23;20490;-96
2023/07/13 09:14:49;;;;;;;2.75;1.63;;;;;;;21.41;100.00;100574.91;7662127;23;20177;-96
2023/07/13 09:18:16;;;;;;;6.03;2.10;;;;;;;22.14;100.00;100572.72;7716825;23;20458;-96
2023/07/13 09:21:33;;;;;;;3.78;1.75;;;;;;;22.33;100.00;100575.66;7749992;23;20343;-96
2023/07/13 09:25:00;;;;;;;28.15;4.22;;;;;;;22.39;100.00;100574.09;7759532;23;20031;-96
2023/07/13 09:28:42;;;;;;;12.70;2.75;;;;;;;22.14;100.00;100572.72;7763140;23;20480;-96
2023/07/13 09:31:50;;;;;;;13.15;2.70;;;;;;;22.31;100.00;100577.69;7754362;23;20247;-95
2023/07/13 09:34:57;;;;;;;8.85;2.53;;;;;;;22.24;100.00;100582.13;7764378;23;20027;-96
2023/07/13 09:38:11;;;;;;;25.25;4.20;;;;;;;22.05;100.00;100587.06;7743810;23;20030;-96
2023/07/13 09:41:50;;;;;;;8.00;2.45;;;;;;;21.87;100.00;100582.31;7750098;23;20024;-96
2023/07/13 09:45:06;;;;;;;4.18;1.75;;;;;;;21.78;100.00;100583.47;7772304;23;20031;-96
2023/07/13 09:48:29;;;;;;;6.47;2.00;;;;;;;22.15;100.00;100574.34;7771282;23;20016;-96
2023/07/13 09:51:35;;;;;;;6.38;1.52;;;;;;;22.72;100.00;100585.53;7744754;23;20015;-96
2023/07/13 09:54:38;;;;;;;4.30;1.63;;;;;;;22.84;100.00;100572.56;7750443;23;20582;-96
2023/07/13 09:57:48;;;;;;;6.13;1.55;;;;;;;22.98;100.00;100571.59;7755856;23;20411;-96
2023/07/13 10:01:02;;;;;;;4.22;1.98;;;;;;;22.72;100.00;100582.09;7746247;23;20024;-96
2023/07/13 10:04:19;;;;;;;2.80;1.45;;;;;;;22.75;100.00;100577.22;7767416;23;20110;-96
2023/07/13 10:07:35;;;;;;;5.63;1.83;;;;;;;22.68;100.00;100580.84;7732009;23;20435;-96
2023/07/13 10:10:40;;;;;;;14.88;2.10;;;;;;;22.69;100.00;100585.94;7759924;23;20020;-96
2023/07/13 10:13:59;;;;;;;3.28;1.42;;;;;;;22.69;100.00;100590.41;7748378;23;20324;-96
2023/07/13 10:17:05;;;;;;;3.20;1.40;;;;;;;22.69;100.00;100604.41;7745202;23;20450;-92
2023/07/13 10:20:20;;;;;;;4.18;1.40;;;;;;;22.74;100.00;100590.63;7754299;23;20016;-96
2023/07/13 10:23:32;;;;;;;3.80;1.63;;;;;;;22.84;100.00;100571.75;7760369;23;20019;-96
2023/07/13 10:26:46;;;;;;;3.22;1.33;;;;;;;22.78;100.00;100570.72;7744593;23;20019;-94
2023/07/13 10:29:56;;;;;;;3.35;1.50;;;;;;;23.11;100.00;100584.00;7745069;23;20012;-96
2023/07/13 10:33:10;;;;;;;3.95;1.65;;;;;;;23.37;100.00;100577.91;7759854;23;20020;-96
2023/07/13 10:36:40;;;;;;;5.45;1.75;;;;;;;23.46;100.00;100586.44;7759838;23;20020;-96
2023/07/13 10:40:12;;;;;;;11.50;2.50;;;;;;;23.66;100.00;100573.19;7741823;23;20027;-96
2023/07/13 10:43:24;;;;;;;16.88;2.58;;;;;;;24.17;100.00;100596.25;7768666;23;20016;-95
2023/07/13 10:46:28;;;;;;;3.83;1.58;;;;;;;23.80;100.00;100582.75;7747177;23;20030;-96
2023/07/13 10:49:33;;;;;;;2.30;1.50;;;;;;;23.75;100.00;100579.94;7754449;23;20020;-96
2023/07/13 10:52:54;;;;;;;3.10;1.70;;;;;;;23.76;100.00;100580.75;7750326;23;20024;-96
2023/07/13 10:56:16;;;;;;;5.32;1.60;;;;;;;23.83;100.00;100577.06;7732926;23;20023;-96
2023/07/13 10:59:37;;;;;;;3.05;1.60;;;;;;;23.97;100.00;100575.19;7727268;23;20153;-96
2023/07/13 11:02:56;;;;;;;3.63;1.35;;;;;;;23.69;100.00;100582.56;7727524;23;20020;-96
2023/07/13 11:06:20;;;;;;;3.08;1.55;;;;;;;23.57;100.00;100585.81;7750187;23;20024;-95
2023/07/13 11:09:47;;;;;;;4.65;1.88;;;;;;;23.41;100.00;100594.16;7752695;23;20051;-96
2023/07/13 11:12:53;;;;;;;3.78;1.50;;;;;;;23.14;100.00;100583.59;7754132;23;20324;-95
2023/07/13 11:15:57;;;;;;;3.97;1.60;;;;;;;23.43;100.00;100592.94;7756482;22;20012;-96
2023/07/13 11:19:07;;;;;;;4.10;1.55;;;;;;;24.15;100.00;100589.56;7758349;23;20020;-96
2023/07/13 11:22:21;;;;;;;3.00;1.63;;;;;;;24.44;100.00;100596.16;7735358;23;20098;-94
2023/07/13 11:25:26;;;;;;;4.40;1.73;;;;;;;24.29;100.00;100591.94;7754688;23;20020;-96
2023/07/13 11:28:32;;;;;;;3.05;1.88;;;;;;;24.01;100.00;100586.16;7744867;23;20489;-96
2023/07/13 11:31:50;;;;;;;6.45;1.67;;;;;;;23.89;100.00;100585.19;7735198;23;20055;-96
2023/07/13 11:34:55;;;;;;;4.00;1.80;;;;;;;24.34;100.00;100567.50;7736784;23;20031;-96
2023/07/13 11:38:13;;;;;;;2.30;1.52;;;;;;;24.35;100.00;100574.44;7773351;23;20020;-96
2023/07/13 11:41:22;;;;;;;2.97;1.35;;;;;;;24.32;100.00;100572.19;7761407;23;20426;-96
2023/07/13 11:44:26;;;;;;;4.47;2.13;;;;;;;24.40;100.00;100568.53;7752754;23;20501;-96
2023/07/13 11:47:32;;;;;;;3.65;1.75;;;;;;;24.57;100.00;100567.03;7734293;23;20016;-96
2023/07/13 11:50:52;;;;;;;2.33;1.50;;;;;;;24.82;100.00;100571.53;7754582;23;20398;-96
2023/07/13 11:54:04;;;;;;;3.03;1.30;;;;;;;25.10;99.56;100579.91;7751479;23;20599;-96
2023/07/13 11:57:22;;;;;;;5.18;1.80;;;;;;;25.39;94.57;100569.72;7746806;23;20020;-96
2023/07/13 12:00:33;;;;;;;3.92;1.58;;;;;;;26.05;100.00;100578.84;7776253;22;20020;-96
2023/07/13 12:03:46;;;;;;;3.58;1.75;;;;;;;26.55;97.53;100562.69;7778179;22;20020;-96
2023/07/13 12:07:20;;;;;;;3.55;1.70;;;;;;;26.61;89.35;100567.13;7749314;23;20028;-96
2023/07/13 12:10:28;;;;;;;3.90;1.33;;;;;;;26.50;84.90;100567.03;7767939;23;20016;-96
2023/07/13 12:13:43;;;;;;;3.70;1.55;;;;;;;26.26;80.96;100582.88;7779599;23;20023;-96
2023/07/13 12:16:56;;;;;;;8.98;1.95;;;;;;;25.39;87.38;100590.91;7772649;22;20023;-96
2023/07/13 12:20:25;;;;;;;1.83;1.42;;;;;;;24.78;93.91;100579.13;7775971;23;20047;-96
2023/07/13 12:24:03;;;;;;;5.57;1.88;;;;;;;24.48;100.00;100582.34;7588521;23;20045;-96
2023/07/13 12:27:30;;;;;;;2.65;2.28;;;;;;;24.52;100.00;100585.38;7713433;23;20028;-96
2023/07/13 12:30:37;;;;;;;5.05;1.83;;;;;;;25.04;100.00;100588.72;7694983;23;20024;-96
2023/07/13 12:37:14;;;;;;;4.18;1.70;;;;;;;26.26;100.00;100566.97;7709560;23;20341;-96
2023/07/13 12:40:36;;;;;;;2.78;1.70;;;;;;;26.45;100.00;100566.91;7686317;23;20027;-96
2023/07/13 12:43:50;;;;;;;3.88;1.58;;;;;;;26.34;86.20;100576.47;7691080;23;20031;-96
2023/07/13 12:47:15;;;;;;;5.18;1.80;;;;;;;25.70;93.71;100586.53;7690309;23;20084;-96
2023/07/13 12:50:43;;;;;;;3.58;1.90;;;;;;;24.97;99.84;100585.31;7690877;23;20347;-95
2023/07/13 12:53:50;;;;;;;3.90;1.75;;;;;;;24.36;100.00;100589.28;7692268;23;20020;-96
2023/07/13 12:56:59;;;;;;;2.05;1.50;;;;;;;23.65;100.00;100598.00;7707085;23;20123;-95
2023/07/13 13:00:04;;;;;;;3.78;2.10;;;;;;;23.06;100.00;100609.41;7704852;23;20462;-92
2023/07/13 13:03:38;;;;;;;3.13;1.95;;;;;;;22.84;100.00;100608.72;7704796;23;20104;-94
2023/07/13 13:06:42;;;;;;;4.63;2.22;;;;;;;21.77;100.00;100623.22;7679012;23;20020;-94
2023/07/13 13:09:44;;;;;;;16.42;3.83;;;;;;;21.04;100.00;100640.00;7679799;23;20455;-90
2023/07/13 13:12:46;;;;;;;17.25;3.47;;;;;;;19.74;100.00;100626.56;7706523;23;20128;-93
2023/07/13 13:15:48;;;;;;;7.20;3.22;;;;;;;19.41;100.00;100634.69;7704630;23;20031;-93
2023/07/13 13:18:53;;;;;;;5.13;3.00;;;;;;;19.02;100.00;100653.16;7706504;23;20030;-95
2023/07/13 13:21:56;;;;;;;28.10;4.55;;;;;;;18.35;100.00;100650.97;7704089;23;20023;-89
2023/07/13 13:24:59;;;;;;;23.48;5.30;;;;;;;18.12;100.00;100643.03;7677685;23;20051;-89
2023/07/13 13:28:01;;;;;;;7.60;4.55;;;;;;;19.03;100.00;100665.28;7702869;23;20031;-92
2023/07/13 13:31:03;;;;;;;10.13;5.22;;;;;;;20.44;100.00;100665.53;7703577;23;20023;-93
2023/07/13 13:34:09;;;;;;;5.28;4.05;;;;;;;20.64;100.00;100639.56;7705208;23;20024;-94
2023/07/13 13:37:21;;;;;;;5.95;4.05;;;;;;;20.09;100.00;100650.50;7704254;23;20111;-94
2023/07/13 13:40:24;;;;;;;6.30;3.58;;;;;;;19.94;100.00;100669.69;7679179;23;20442;-93
2023/07/13 13:43:27;;;;;;;7.28;2.42;;;;;;;19.69;100.00;100663.84;7710510;23;20020;-95
2023/07/13 13:46:32;;;;;;;3.58;2.00;;;;;;;19.48;100.00;100679.44;7746224;22;20516;-96
2023/07/13 13:49:36;;;;;;;11.00;2.80;;;;;;;19.15;100.00;100675.22;7750548;22;20020;-88
2023/07/13 13:52:38;;;;;;;4.05;1.98;;;;;;;18.83;100.00;100678.00;7741986;23;20026;-94
2023/07/13 13:55:42;;;;;;;5.28;2.90;;;;;;;18.91;100.00;100685.88;7689592;23;20020;-96
2023/07/13 13:58:47;;;;;;;3.47;2.85;;;;;;;19.53;100.00;100696.31;7730247;23;20027;-96
2023/07/13 14:01:52;;;;;;;5.00;2.38;;;;;;;19.79;100.00;100709.06;7711715;23;20007;-96
2023/07/13 14:05:00;;;;;;;4.97;2.70;;;;;;;19.64;100.00;100707.38;7717767;23;20020;-95
2023/07/13 14:08:03;;;;;;;6.00;2.10;;;;;;;20.00;100.00;100697.91;7753054;23;20024;-92
2023/07/13 14:11:05;;;;;;;3.65;1.73;;;;;;;21.18;100.00;100701.47;7742711;23;20446;-94
2023/07/13 14:14:16;;;;;;;10.32;2.35;;;;;;;22.39;100.00;100698.06;7715095;23;20020;-96
2023/07/13 14:17:26;;;;;;;;;;;;;;;23.16;100.00;100700.41;7718363;23;20015;-96
2023/07/13 14:20:30;;;;;;;4.85;1.70;;;;;;;23.46;100.00;100717.75;7696706;23;19919;-96
2023/07/13 14:23:32;;;;;;;3.72;1.60;;;;;;;22.94;100.00;100722.66;7719640;23;20455;-96
2023/07/13 14:26:40;;;;;;;3.13;1.95;;;;;;;22.01;100.00;100735.28;7716277;23;20484;-96
2023/07/13 14:29:42;;;;;;;2.03;1.60;;;;;;;21.43;100.00;100740.66;7722876;23;20016;-96